createdAt,value
2023-06-10T00:03:26.329Z,1014.3
2023-06-10T00:08:26.099Z,1014.2
2023-06-10T00:13:26.185Z,1014.1
2023-06-10T00:18:26.111Z,1014.1
2023-06-10T00:23:26.227Z,1014.1
2023-06-10T00:28:26.097Z,1014.1
2023-06-10T00:33:26.231Z,1014.1
2023-06-10T00:38:26.105Z,1014.2
2023-06-10T00:43:26.198Z,1014.1
2023-06-10T00:48:26.099Z,1014.1
2023-06-10T00:53:26.196Z,1014.0
2023-06-10T00:58:26.102Z,1014.0
2023-06-10T01:03:26.416Z,1014.0
2023-06-10T01:08:26.096Z,1014.0
2023-06-10T01:13:26.207Z,1013.9
2023-06-10T01:18:26.082Z,1013.9
2023-06-10T01:23:26.192Z,1013.9
2023-06-10T01:28:26.102Z,1013.9
2023-06-10T01:33:26.237Z,1013.9
2023-06-10T01:38:26.099Z,1013.9
2023-06-10T01:43:26.264Z,1013.9
2023-06-10T01:48:26.120Z,1013.8
2023-06-10T01:53:26.238Z,1013.8
2023-06-10T01:58:26.106Z,1013.8
2023-06-10T02:03:26.325Z,1013.8
2023-06-10T02:08:26.119Z,1013.7
2023-06-10T02:13:26.199Z,1013.7
2023-06-10T02:18:26.123Z,1013.6
2023-06-10T02:23:26.197Z,1013.6
2023-06-10T02:28:26.137Z,1013.5
2023-06-10T02:33:26.274Z,1013.5
2023-06-10T02:38:26.156Z,1013.5
2023-06-10T02:43:26.208Z,1013.4
2023-06-10T02:48:26.106Z,1013.4
2023-06-10T02:53:26.324Z,1013.4
2023-06-10T02:58:26.103Z,1013.4
2023-06-10T03:03:26.285Z,1013.4
2023-06-10T03:08:26.084Z,1013.3
2023-06-10T03:13:26.223Z,1013.3
2023-06-10T03:18:26.156Z,1013.3
2023-06-10T03:23:26.225Z,1013.3
2023-06-10T03:33:26.325Z,1013.2
2023-06-10T03:38:26.127Z,1013.2
2023-06-10T03:43:26.226Z,1013.2
2023-06-10T03:48:26.104Z,1013.2
2023-06-10T03:53:26.232Z,1013.1
2023-06-10T03:58:26.114Z,1013.1
2023-06-10T04:03:26.264Z,1013.2
2023-06-10T04:08:26.120Z,1013.1
2023-06-10T04:13:26.224Z,1013.1
2023-06-10T04:18:26.120Z,1013.1
2023-06-10T04:23:26.228Z,1013.1
2023-06-10T04:28:26.119Z,1013.0
2023-06-10T04:33:26.267Z,1013.0
2023-06-10T04:38:26.155Z,1013.0
2023-06-10T04:43:26.235Z,1013.0
2023-06-10T04:48:26.153Z,1013.0
2023-06-10T04:53:26.116Z,1013.0
2023-06-10T04:58:26.140Z,1013.0
2023-06-10T05:03:26.299Z,1013.0
2023-06-10T05:08:26.117Z,1012.9
2023-06-10T05:13:26.227Z,1012.9
2023-06-10T05:18:26.133Z,1012.9
2023-06-10T05:23:26.274Z,1012.9
2023-06-10T05:28:26.135Z,1012.9
2023-06-10T05:33:26.270Z,1012.9
2023-06-10T05:38:26.148Z,1012.8
2023-06-10T05:43:26.234Z,1012.7
2023-06-10T05:48:26.149Z,1012.8
2023-06-10T05:53:26.279Z,1012.8
2023-06-10T05:58:26.149Z,1012.8
2023-06-10T06:03:26.444Z,1012.8
2023-06-10T06:08:26.165Z,1012.8
2023-06-10T06:18:26.174Z,1012.8
2023-06-10T06:23:26.365Z,1012.7
2023-06-10T06:28:26.150Z,1012.8
2023-06-10T06:38:26.174Z,1012.9
2023-06-10T06:43:26.275Z,1012.8
2023-06-10T06:48:26.258Z,1012.8
2023-06-10T06:53:26.266Z,1012.7
2023-06-10T06:58:26.157Z,1012.8
2023-06-10T07:03:26.255Z,1012.8
2023-06-10T07:08:26.151Z,1012.9
2023-06-10T07:13:26.268Z,1012.9
2023-06-10T07:18:26.161Z,1012.9
2023-06-10T07:23:26.264Z,1012.8
2023-06-10T07:28:26.137Z,1012.9
2023-06-10T07:33:26.257Z,1012.9
2023-06-10T07:38:26.170Z,1012.8
2023-06-10T07:43:26.258Z,1012.8
2023-06-10T07:48:26.176Z,1012.8
2023-06-10T07:53:26.273Z,1012.8
2023-06-10T07:58:26.166Z,1012.8
2023-06-10T08:08:26.201Z,1012.9
2023-06-10T08:13:26.257Z,1012.9
2023-06-10T08:18:26.155Z,1012.8
2023-06-10T08:23:26.338Z,1012.8
2023-06-10T08:28:26.229Z,1012.7
2023-06-10T08:33:26.413Z,1012.7
2023-06-10T08:38:26.172Z,1012.7
2023-06-10T08:43:26.341Z,1012.6
2023-06-10T08:48:26.237Z,1012.7
2023-06-10T08:53:26.277Z,1012.7
2023-06-10T09:03:26.301Z,1012.6
2023-06-10T09:08:26.201Z,1012.8
2023-06-10T09:13:26.268Z,1012.7
2023-06-10T09:18:26.178Z,1012.7
2023-06-10T09:23:26.334Z,1012.7
2023-06-10T09:28:26.199Z,1012.7
2023-06-10T09:33:26.282Z,1012.6
2023-06-10T09:38:26.166Z,1012.6
2023-06-10T09:43:26.278Z,1012.6
2023-06-10T09:48:26.174Z,1012.5
2023-06-10T09:53:26.275Z,1012.6
2023-06-10T09:58:26.187Z,1012.5
2023-06-10T10:08:26.290Z,1012.5
2023-06-10T10:13:26.271Z,1012.5
2023-06-10T10:18:26.308Z,1012.5
2023-06-10T10:23:26.282Z,1012.5
2023-06-10T10:28:26.194Z,1012.5
2023-06-10T10:33:26.516Z,1012.5
2023-06-10T10:38:26.197Z,1012.4
2023-06-10T10:43:26.272Z,1012.4
2023-06-10T10:48:26.186Z,1012.3
2023-06-10T10:53:26.269Z,1012.3
2023-06-10T10:58:26.191Z,1012.3
2023-06-10T11:03:26.577Z,1012.3
2023-06-10T11:08:26.212Z,1012.3
2023-06-10T11:18:26.208Z,1012.4
2023-06-10T11:23:26.358Z,1012.3
2023-06-10T11:28:26.190Z,1012.3
2023-06-10T11:33:26.306Z,1012.4
2023-06-10T11:38:26.200Z,1012.4
2023-06-10T11:43:26.377Z,1012.4
2023-06-10T11:48:26.187Z,1012.4
2023-06-10T11:53:26.278Z,1012.4
2023-06-10T11:58:26.175Z,1012.4
2023-06-10T12:03:26.545Z,1012.4
2023-06-10T12:08:26.211Z,1012.4
2023-06-10T12:13:26.281Z,1012.4
2023-06-10T12:18:26.196Z,1012.4
2023-06-10T12:23:26.276Z,1012.4
2023-06-10T12:28:26.197Z,1012.4
2023-06-10T12:33:26.386Z,1012.4
2023-06-10T12:38:26.185Z,1012.4
2023-06-10T12:43:26.301Z,1012.5
2023-06-10T12:48:28.624Z,1012.4
2023-06-10T12:53:26.296Z,1012.5
2023-06-10T12:58:26.201Z,1012.5
2023-06-10T13:03:26.296Z,1012.4
2023-06-10T13:13:26.295Z,1012.3
2023-06-10T13:18:26.216Z,1012.4
2023-06-10T13:23:26.305Z,1012.3
2023-06-10T13:28:26.202Z,1012.3
2023-06-10T13:33:26.325Z,1012.3
2023-06-10T13:38:26.208Z,1012.3
2023-06-10T13:43:26.297Z,1012.2
2023-06-10T13:48:26.204Z,1012.3
2023-06-10T13:53:26.378Z,1012.2
2023-06-10T13:58:26.211Z,1012.1
2023-06-10T14:03:26.368Z,1012.2
2023-06-10T14:08:26.248Z,1012.2
2023-06-10T14:13:26.326Z,1012.3
2023-06-10T14:18:26.230Z,1012.3
2023-06-10T14:23:26.297Z,1012.2
2023-06-10T14:28:26.212Z,1012.3
2023-06-10T14:33:26.351Z,1012.2
2023-06-10T14:38:26.185Z,1012.3
2023-06-10T14:43:26.336Z,1012.2
2023-06-10T14:48:26.214Z,1012.2
2023-06-10T14:53:26.325Z,1012.3
2023-06-10T14:58:26.230Z,1012.4
2023-06-10T15:03:26.342Z,1012.3
2023-06-10T15:08:26.273Z,1012.3
2023-06-10T15:13:26.321Z,1012.3
2023-06-10T15:18:26.235Z,1012.3
2023-06-10T15:23:26.336Z,1012.2
2023-06-10T15:28:28.253Z,1012.3
2023-06-10T15:38:26.244Z,1012.3
2023-06-10T15:43:26.331Z,1012.3
2023-06-10T15:48:26.237Z,1012.2
2023-06-10T15:53:26.418Z,1012.3
2023-06-10T15:58:26.230Z,1012.2
2023-06-10T16:03:26.413Z,1012.3
2023-06-10T16:08:26.243Z,1012.3
2023-06-10T16:13:26.331Z,1012.2
2023-06-10T16:18:26.244Z,1012.2
2023-06-10T16:23:26.332Z,1012.2
2023-06-10T16:28:26.241Z,1012.2
2023-06-10T16:33:26.343Z,1012.1
2023-06-10T16:38:26.240Z,1012.1
2023-06-10T16:43:26.343Z,1012.1
2023-06-10T16:48:26.244Z,1012.1
2023-06-10T16:53:26.401Z,1012.1
2023-06-10T16:58:26.251Z,1012.1
2023-06-10T17:03:26.444Z,1012.1
2023-06-10T17:08:26.283Z,1012.1
2023-06-10T17:13:26.500Z,1012.1
2023-06-10T17:18:26.392Z,1012.1
2023-06-10T17:23:26.338Z,1012.1
2023-06-10T17:28:26.237Z,1012.1
2023-06-10T17:33:26.345Z,1012.1
2023-06-10T17:38:26.323Z,1012.2
2023-06-10T17:43:26.442Z,1012.2
2023-06-10T17:48:26.290Z,1012.2
2023-06-10T17:53:26.343Z,1012.3
2023-06-10T17:58:26.244Z,1012.3
2023-06-10T18:03:26.418Z,1012.3
2023-06-10T18:08:26.243Z,1012.3
2023-06-10T18:13:26.332Z,1012.4
2023-06-10T18:18:26.235Z,1012.4
2023-06-10T18:23:26.351Z,1012.5
2023-06-10T18:28:26.243Z,1012.5
2023-06-10T18:33:26.338Z,1012.5
2023-06-10T18:38:26.251Z,1012.6
2023-06-10T18:43:26.485Z,1012.6
2023-06-10T18:48:26.388Z,1012.6
2023-06-10T18:53:26.395Z,1012.6
2023-06-10T18:58:26.268Z,1012.7
2023-06-10T19:03:26.463Z,1012.7
2023-06-10T19:08:26.278Z,1012.7
2023-06-10T19:13:26.395Z,1012.8
2023-06-10T19:18:26.315Z,1012.9
2023-06-10T19:23:26.396Z,1012.9
2023-06-10T19:28:26.293Z,1013.0
2023-06-10T19:33:26.433Z,1013.0
2023-06-10T19:38:26.307Z,1012.9
2023-06-10T19:43:26.386Z,1013.0
2023-06-10T19:48:26.274Z,1013.1
2023-06-10T19:53:26.386Z,1013.1
2023-06-10T19:58:26.300Z,1013.2
2023-06-10T20:03:26.604Z,1013.1
2023-06-10T20:08:26.271Z,1013.1
2023-06-10T20:13:26.401Z,1013.1
2023-06-10T20:18:26.293Z,1013.3
2023-06-10T20:23:26.393Z,1013.5
2023-06-10T20:28:26.302Z,1013.6
2023-06-10T20:33:26.398Z,1013.5
2023-06-10T20:38:26.287Z,1013.5
2023-06-10T20:43:26.282Z,1013.5
2023-06-10T20:48:26.290Z,1013.5
2023-06-10T20:53:26.476Z,1013.6
2023-06-10T21:03:26.490Z,1013.8
2023-06-10T21:08:28.082Z,1013.7
2023-06-10T21:13:26.400Z,1013.8
2023-06-10T21:18:26.267Z,1013.7
2023-06-10T21:23:26.396Z,1013.7
2023-06-10T21:28:26.337Z,1013.6
2023-06-10T21:33:26.434Z,1013.6
2023-06-10T21:38:26.293Z,1013.7
2023-06-10T21:43:26.406Z,1013.6
2023-06-10T21:48:26.292Z,1013.6
2023-06-10T21:53:26.397Z,1013.7
2023-06-10T21:58:26.327Z,1013.7
2023-06-10T22:03:26.473Z,1013.7
2023-06-10T22:08:26.334Z,1013.7
2023-06-10T22:13:26.405Z,1013.6
2023-06-10T22:18:26.313Z,1013.5
2023-06-10T22:23:26.397Z,1013.5
2023-06-10T22:28:26.321Z,1013.5
2023-06-10T22:33:26.452Z,1013.4
2023-06-10T22:38:26.321Z,1013.5
2023-06-10T22:43:26.406Z,1013.4
2023-06-10T22:48:26.391Z,1013.4
2023-06-10T22:53:26.410Z,1013.4
2023-06-10T22:58:26.315Z,1013.4
2023-06-10T23:03:26.403Z,1013.4
2023-06-10T23:08:26.294Z,1013.4
2023-06-10T23:13:26.410Z,1013.4
2023-06-10T23:18:26.301Z,1013.4
2023-06-10T23:23:26.412Z,1013.4
2023-06-10T23:28:26.302Z,1013.4
2023-06-10T23:33:26.569Z,1013.4
2023-06-10T23:38:26.333Z,1013.4
2023-06-10T23:43:26.424Z,1013.5
2023-06-10T23:48:26.326Z,1013.4
2023-06-10T23:53:26.417Z,1013.4
2023-06-10T23:58:26.319Z,1013.4
